Météo Cheval Rigon

 

Relevés d'aujourd'hui



 

21/8/18
Time         Wind Dir   Wind Spd  Wind Gust   Humidity       Temp   Tot Rain Wind Chill  Dew Point   Barom SL Humidity R Temp Out R Tot Rain R   WindCh R   Dew Pt R SL Barom R Temp Out H Temp Out L  DailyRain   HourRain   24HrRain   RainRate  MonthRain
                          km/hr      km/hr          %         C         mm         C         C         mb       %/hr      C/hr      mm/hr      C/hr      C/hr      mm/hr         C         C         mm         mm         mm      mm/hr         mm
0:00              349          0          0         88       17.8     716.60       17.8       15.8    1019.62        3.8      -0.93      0.000      -0.93      -0.20      0.132       17.8       17.8       0.00       0.00       0.00      0.000      52.40
0:15              349          0          0         88       17.8     716.60       17.8       15.8    1019.68        2.9      -0.72      0.000      -0.72      -0.15      0.164       17.8       17.8       0.00       0.00       0.00      0.000      52.40
0:30              349          0          0         89       17.7     716.60       17.7       15.9    1019.65        3.2      -0.66      0.000      -0.66      -0.04      0.105       17.8       17.7       0.00       0.00       0.00      0.000      52.40
0:45              349          0          0         89       17.6     716.60       17.6       15.8    1019.58        2.5      -0.61      0.000      -0.61      -0.13      0.018       17.8       17.6       0.00       0.00       0.00      0.000      52.40
1:00              349          0          0         90       17.4     716.60       17.4       15.8    1019.52        3.0      -0.62      0.000      -0.62      -0.07     -0.040       17.8       17.4       0.00       0.00       0.00      0.000      52.40
1:15              349          0          0         90       17.2     716.60       17.2       15.6    1019.55        2.3      -0.68      0.000      -0.68      -0.25     -0.011       17.8       17.2       0.00       0.00       0.00      0.000      52.40
1:30              349          0          0         90       17.0     716.60       17.0       15.4    1019.41        1.8      -0.72      0.000      -0.72      -0.38     -0.121       17.8       17.0       0.00       0.00       0.00      0.000      52.40
1:45              349          0          0         91       16.8     716.60       16.8       15.4    1019.35        2.3      -0.70      0.000      -0.70      -0.29     -0.159       17.8       16.8       0.00       0.00       0.00      0.000      52.40
2:00              349          0          0         92       16.7     716.60       16.7       15.4    1019.21        2.7      -0.69      0.000      -0.69      -0.20     -0.244       17.8       16.7       0.00       0.00       0.00      0.000      52.40
2:15              349          0          0         92       16.6     716.60       16.6       15.3    1019.04        2.1      -0.64      0.000      -0.64      -0.26     -0.338       17.8       16.6       0.00       0.00       0.00      0.000      52.40
2:30              349          0          0         92       16.4     716.60       16.4       15.1    1019.11        1.7      -0.60      0.000      -0.60      -0.30     -0.203       17.8       16.4       0.00       0.00       0.00      0.000      52.40
2:45              349          0          0         92       16.3     716.60       16.3       15.0    1018.94        1.3      -0.56      0.000      -0.56      -0.33     -0.310       17.8       16.3       0.00       0.00       0.00      0.000      52.40
3:00              349          0          0         93       16.3     716.60       16.3       15.1    1018.80        1.8      -0.48      0.000      -0.48      -0.17     -0.359       17.8       16.3       0.00       0.00       0.00      0.000      52.40
3:15              349          0          0         93       16.2     716.60       16.2       15.0    1018.84        1.4      -0.47      0.000      -0.47      -0.22     -0.258       17.8       16.2       0.00       0.00       0.00      0.000      52.40
3:30              349          0          0         93       15.9     716.60       15.9       14.8    1018.63        1.1      -0.60      0.000      -0.60      -0.41     -0.379       17.8       15.9       0.00       0.00       0.00      0.000      52.40
3:45              349          0          0         93       15.8     716.60       15.8       14.7    1018.60        0.9      -0.51      0.000      -0.51      -0.36     -0.331       17.8       15.8       0.00       0.00       0.00      0.000      52.40
4:00              349          0          0         93       15.8     716.60       15.8       14.7    1018.60        0.6      -0.40      0.000      -0.40      -0.29     -0.264       17.8       15.8       0.00       0.00       0.00      0.000      52.40
4:15              349          0          0         94       15.7     716.60       15.7       14.8    1018.53        1.4      -0.41      0.000      -0.41      -0.17     -0.269       17.8       15.7       0.00       0.00       0.00      0.000      52.40
4:30              349          0          0         94       15.8     716.60       15.8       14.8    1018.47        1.1      -0.27      0.000      -0.27      -0.09     -0.268       17.8       15.7       0.00       0.00       0.00      0.000      52.40
4:45              349          0          0         94       15.8     716.60       15.8       14.8    1018.43        0.9      -0.21      0.000      -0.21      -0.07     -0.234       17.8       15.7       0.00       0.00       0.00      0.000      52.40
5:00              349          0          0         94       15.7     716.60       15.7       14.7    1018.33        0.7      -0.25      0.000      -0.25      -0.14     -0.268       17.8       15.6       0.00       0.00       0.00      0.000      52.40
5:15              349          0          0         94       15.7     716.60       15.7       14.7    1018.26        0.5      -0.19      0.000      -0.19      -0.11     -0.268       17.8       15.6       0.00       0.00       0.00      0.000      52.40
5:30              349          0          0         94       15.4     716.60       15.4       14.5    1018.13        0.4      -0.34      0.000      -0.34      -0.28     -0.333       17.8       15.4       0.00       0.00       0.00      0.000      52.40
5:45              349          0          0         95       15.4     716.60       15.4       14.6    1018.23        1.3      -0.26      0.000      -0.26      -0.05     -0.168       17.8       15.4       0.00       0.00       0.00      0.000      52.40
6:00              349          0          0         94       15.3     716.60       15.3       14.3    1018.23        0.2      -0.35      0.000      -0.35      -0.32     -0.113       17.8       15.3       0.00       0.00       0.00      0.000      52.40

 


 

 

 

Retour accueil